Time;durP1;ratioP1;P1;durP2;ratioP2;P2;SDS_P1;SDS_P2;PMS_P1;PMS_P2;Temp;Humidity;BMP_temperature;BMP_pressure;BME280_temperature;BME280_humidity;BME280_pressure;Samples;Min_cycle;Max_cycle;Signal;HPM_P1;HPM_P2
2022/12/25 00:00:39;;;;;;;19.35;7.32;;;15.10;99.90;;;;;;5069935;28;20099;-63
2022/12/25 00:03:05;;;;;;;11.32;6.55;;;15.20;99.90;;;;;;5073761;28;20043;-63
2022/12/25 00:05:31;;;;;;;12.80;7.10;;;15.30;99.90;;;;;;5075001;28;20028;-62
2022/12/25 00:07:56;;;;;;;12.65;7.15;;;15.20;99.90;;;;;;5075593;28;20081;-62
2022/12/25 00:10:22;;;;;;;13.40;6.90;;;15.10;99.90;;;;;;5075395;28;20045;-62
2022/12/25 00:12:48;;;;;;;10.98;6.28;;;15.40;99.90;;;;;;5075602;28;20096;-62
2022/12/25 00:15:14;;;;;;;11.68;6.10;;;15.40;99.90;;;;;;5075195;28;20551;-62
2022/12/25 00:17:40;;;;;;;15.65;6.82;;;15.40;99.90;;;;;;5075497;28;20025;-63
2022/12/25 00:20:06;;;;;;;11.20;6.43;;;15.40;99.90;;;;;;5075166;28;20020;-62
2022/12/25 00:22:32;;;;;;;10.90;6.10;;;15.30;99.90;;;;;;5075502;28;20103;-62
2022/12/25 00:24:57;;;;;;;13.48;6.95;;;15.40;99.90;;;;;;5074895;28;20092;-62
2022/12/25 00:27:23;;;;;;;17.00;7.28;;;15.40;99.90;;;;;;5075147;28;20047;-62
2022/12/25 00:29:48;;;;;;;11.55;5.75;;;15.40;99.90;;;;;;5074522;28;20111;-62
2022/12/25 00:32:14;;;;;;;10.95;5.53;;;15.50;99.90;;;;;;5075040;28;20032;-62
2022/12/25 00:34:40;;;;;;;8.20;5.25;;;15.50;99.90;;;;;;5075195;28;20025;-62
2022/12/25 00:37:05;;;;;;;11.80;5.57;;;15.70;99.90;;;;;;5074649;28;20031;-63
2022/12/25 00:39:31;;;;;;;10.00;5.93;;;15.50;99.80;;;;;;5074852;28;20063;-62
2022/12/25 00:44:41;;;;;;;11.38;5.15;;;15.60;99.80;;;;;;5074647;28;20043;-61
2022/12/25 00:47:07;;;;;;;10.27;5.10;;;15.70;99.70;;;;;;5074556;28;20036;-62
2022/12/25 00:49:32;;;;;;;11.43;5.72;;;15.60;99.60;;;;;;5074687;28;20036;-62
2022/12/25 00:51:58;;;;;;;10.25;5.43;;;15.40;99.80;;;;;;5074778;28;20461;-64
2022/12/25 00:54:24;;;;;;;13.35;5.80;;;15.30;99.80;;;;;;5074454;28;20023;-62
2022/12/25 00:56:49;;;;;;;13.60;6.10;;;15.10;99.90;;;;;;5074732;28;20074;-62
2022/12/25 00:59:15;;;;;;;11.60;5.97;;;15.10;99.90;;;;;;5074042;28;20082;-62
2022/12/25 01:01:40;;;;;;;12.13;5.55;;;14.80;99.90;;;;;;5074280;28;20033;-62
2022/12/25 01:04:07;;;;;;;8.10;5.00;;;14.80;99.90;;;;;;5074650;28;20017;-62
2022/12/25 01:06:33;;;;;;;10.52;5.30;;;14.80;99.90;;;;;;5074293;28;20366;-63
2022/12/25 01:11:43;;;;;;;9.20;4.70;;;15.20;99.90;;;;;;5074508;28;20393;-62
2022/12/25 01:14:09;;;;;;;11.27;4.78;;;15.10;99.80;;;;;;5074160;28;20024;-61
2022/12/25 01:16:35;;;;;;;9.48;5.28;;;15.00;99.90;;;;;;5074063;28;20186;-62
2022/12/25 01:19:01;;;;;;;9.98;5.03;;;15.00;99.90;;;;;;5074386;28;20035;-63
2022/12/25 01:21:27;;;;;;;10.95;4.30;;;14.90;99.90;;;;;;5074095;28;20029;-62
2022/12/25 01:23:53;;;;;;;9.63;4.60;;;14.90;99.90;;;;;;5074063;28;20096;-63
2022/12/25 01:26:21;;;;;;;9.30;4.60;;;15.10;99.90;;;;;;5074003;28;20043;-63
2022/12/25 01:28:48;;;;;;;9.48;3.50;;;15.00;99.90;;;;;;5073897;28;20504;-67
2022/12/25 01:31:17;;;;;;;10.05;3.80;;;15.20;99.70;;;;;;5073586;28;20045;-64
2022/12/25 01:33:43;;;;;;;6.95;2.90;;;15.20;99.90;;;;;;5074089;28;20039;-69
2022/12/25 01:36:21;;;;;;;7.25;3.50;;;15.20;99.60;;;;;;5073643;28;20029;-62
2022/12/25 01:38:49;;;;;;;7.35;3.45;;;15.20;99.50;;;;;;5073905;28;20023;-63
2022/12/25 01:41:16;;;;;;;6.72;3.65;;;15.20;99.40;;;;;;5073777;28;20399;-63
2022/12/25 01:44:06;;;;;;;9.38;3.40;;;15.20;99.30;;;;;;5073566;28;20027;-62
2022/12/25 01:46:34;;;;;;;8.75;3.35;;;15.20;99.30;;;;;;5059692;28;20033;-61
2022/12/25 01:49:20;;;;;;;8.32;2.60;;;15.10;99.30;;;;;;5071413;28;20096;-62
2022/12/25 01:51:56;;;;;;;6.40;3.58;;;15.30;99.30;;;;;;5066210;28;20563;-62
2022/12/25 01:54:34;;;;;;;8.55;3.03;;;15.00;99.30;;;;;;5056011;28;20036;-62
2022/12/25 01:57:03;;;;;;;5.95;2.78;;;14.90;99.60;;;;;;5050647;28;20024;-63
2022/12/25 01:59:29;;;;;;;7.63;2.92;;;14.90;99.50;;;;;;5057298;28;20035;-63
2022/12/25 02:01:55;;;;;;;7.75;2.28;;;14.70;99.90;;;;;;5073502;28;20131;-63
2022/12/25 02:04:37;;;;;;;8.05;2.70;;;14.70;99.90;;;;;;5072215;28;20039;-63
2022/12/25 02:07:09;;;;;;;5.17;2.40;;;14.70;99.70;;;;;;5072815;28;20032;-63
2022/12/25 02:09:36;;;;;;;7.32;2.45;;;14.50;99.90;;;;;;5072970;28;20040;-64
2022/12/25 02:12:03;;;;;;;6.15;2.58;;;14.60;99.80;;;;;;5072997;28;20055;-65
2022/12/25 02:14:31;;;;;;;8.82;2.75;;;14.70;99.80;;;;;;5073429;28;20016;-63
2022/12/25 02:17:27;;;;;;;6.63;2.47;;;14.60;99.80;;;;;;5073090;28;20497;-62
2022/12/25 02:20:07;;;;;;;6.65;2.50;;;14.60;99.70;;;;;;5069865;28;20109;-62
2022/12/25 02:23:08;;;;;;;7.10;2.10;;;14.50;99.80;;;;;;5073179;28;20029;-63
2022/12/25 02:26:07;;;;;;;9.38;2.55;;;14.30;99.90;;;;;;5050812;28;20072;-62
2022/12/25 02:28:38;;;;;;;7.18;2.42;;;14.20;99.90;;;;;;5072976;28;20044;-62
2022/12/25 02:31:13;;;;;;;8.35;2.45;;;14.30;99.90;;;;;;5072999;28;20105;-65
2022/12/25 02:34:03;;;;;;;6.85;2.45;;;14.20;99.90;;;;;;5072788;28;20107;-66
2022/12/25 02:36:46;;;;;;;6.20;2.42;;;14.20;99.90;;;;;;5072943;28;20031;-62
2022/12/25 02:39:58;;;;;;;6.38;2.47;;;14.00;99.90;;;;;;5072855;28;20027;-62
2022/12/25 03:07:58;;;;;;;8.48;3.03;;;13.80;99.90;;;;;;5052153;28;20056;-62
2022/12/25 03:13:17;;;;;;;5.30;2.40;;;13.80;99.90;;;;;;5052489;28;20052;-62
2022/12/25 03:18:30;;;;;;;5.88;2.42;;;14.00;99.90;;;;;;5066253;28;20042;-62
2022/12/25 03:26:53;;;;;;;8.20;2.92;;;14.10;99.90;;;;;;5076617;28;20040;-61
2022/12/25 03:26:56;;;;;;;4.43;2.10;;;13.90;99.90;;;;;;5076166;28;20073;-62
2022/12/25 03:32:23;;;;;;;6.90;2.25;;;14.20;99.90;;;;;;5076551;28;20452;-63
2022/12/25 03:35:24;;;;;;;5.32;1.83;;;14.40;99.50;;;;;;5076121;28;20087;-62
2022/12/25 03:38:22;;;;;;;5.55;1.83;;;14.60;99.50;;;;;;5074873;28;20026;-62
2022/12/25 04:36:22;;;;;;;2.88;1.20;;;14.80;99.20;;;;;;5055023;28;20394;-62
2022/12/25 04:38:47;;;;;;;3.28;1.27;;;14.60;99.30;;;;;;5072445;28;20028;-62
2022/12/25 04:41:13;;;;;;;4.97;1.55;;;14.70;99.50;;;;;;5075071;28;20103;-66
2022/12/25 04:43:39;;;;;;;5.97;2.15;;;14.60;99.50;;;;;;5075057;28;20024;-67
2022/12/25 04:46:05;;;;;;;4.53;1.88;;;14.70;99.40;;;;;;5074555;28;20028;-62
2022/12/25 04:48:33;;;;;;;5.45;1.80;;;14.70;99.50;;;;;;5074985;28;20111;-62
2022/12/25 04:51:19;;;;;;;4.03;1.25;;;14.60;99.50;;;;;;5074280;28;20020;-67
2022/12/25 04:53:46;;;;;;;3.78;1.65;;;14.50;99.70;;;;;;5074734;28;20120;-63
2022/12/25 04:56:12;;;;;;;4.38;1.80;;;14.50;99.70;;;;;;5074715;28;20025;-62
2022/12/25 04:58:38;;;;;;;4.03;1.55;;;14.40;99.70;;;;;;5074797;28;20025;-63
2022/12/25 05:01:04;;;;;;;2.67;1.10;;;14.40;99.90;;;;;;5074784;28;20044;-62
2022/12/25 05:03:31;;;;;;;4.97;1.67;;;14.50;99.80;;;;;;5074916;28;20024;-62
2022/12/25 05:05:56;;;;;;;4.25;1.27;;;14.40;99.90;;;;;;5073905;28;20029;-63
2022/12/25 05:08:22;;;;;;;3.92;1.85;;;14.40;99.90;;;;;;5074394;28;20033;-63
2022/12/25 05:10:48;;;;;;;3.40;1.48;;;14.10;99.90;;;;;;5074295;28;20024;-64
2022/12/25 05:13:14;;;;;;;5.35;1.52;;;14.50;99.90;;;;;;5074865;28;20025;-62
2022/12/25 05:15:40;;;;;;;6.28;1.77;;;14.40;99.80;;;;;;5073085;28;20016;-63
2022/12/25 05:18:06;;;;;;;7.80;1.70;;;14.40;99.90;;;;;;5074543;28;20024;-62
2022/12/25 05:20:32;;;;;;;3.58;1.30;;;14.40;99.90;;;;;;5073990;28;20074;-62
2022/12/25 05:22:57;;;;;;;4.75;1.70;;;14.30;99.90;;;;;;5074108;28;20055;-62
2022/12/25 05:25:23;;;;;;;5.53;1.65;;;14.20;99.90;;;;;;5074159;28;20054;-62
2022/12/25 05:27:49;;;;;;;3.78;1.73;;;14.60;99.90;;;;;;5074027;28;20106;-62
2022/12/25 05:30:14;;;;;;;4.93;1.77;;;14.40;99.90;;;;;;5073572;28;20123;-62
2022/12/25 05:32:40;;;;;;;4.45;1.63;;;14.30;99.90;;;;;;5074189;28;20032;-62
2022/12/25 05:35:07;;;;;;;5.53;1.63;;;14.60;99.90;;;;;;5073828;28;20024;-62
2022/12/25 05:37:34;;;;;;;4.30;1.33;;;14.60;99.70;;;;;;5074134;28;20028;-62
2022/12/25 05:40:01;;;;;;;3.13;1.60;;;14.50;99.80;;;;;;5072834;28;20028;-62
2022/12/25 05:42:27;;;;;;;3.33;1.50;;;14.50;99.90;;;;;;5074055;28;20048;-62
2022/12/25 05:44:52;;;;;;;6.85;1.48;;;14.40;99.90;;;;;;5073995;28;20016;-62
2022/12/25 05:47:18;;;;;;;3.75;1.50;;;14.50;99.90;;;;;;5073610;28;20044;-62
2022/12/25 05:49:44;;;;;;;5.78;1.75;;;14.50;99.90;;;;;;5073602;28;20081;-62
2022/12/25 05:52:09;;;;;;;3.35;1.40;;;14.70;99.70;;;;;;5073615;28;20029;-62
2022/12/25 05:54:35;;;;;;;5.55;1.63;;;14.80;99.40;;;;;;5073573;28;20440;-62
2022/12/25 05:57:01;;;;;;;4.00;1.42;;;14.50;99.70;;;;;;5073451;28;20111;-62
2022/12/25 05:59:31;;;;;;;2.67;1.42;;;14.50;99.90;;;;;;5073543;28;20473;-62
2022/12/25 06:01:56;;;;;;;3.88;1.60;;;14.40;99.90;;;;;;5058637;28;20057;-62
2022/12/25 06:04:22;;;;;;;4.22;1.90;;;14.30;99.90;;;;;;5053265;28;20048;-62
2022/12/25 06:06:48;;;;;;;4.22;1.70;;;14.00;99.90;;;;;;5055072;28;20473;-62
2022/12/25 06:09:13;;;;;;;3.17;1.83;;;14.10;99.90;;;;;;5072644;28;20134;-62
2022/12/25 06:11:40;;;;;;;3.92;1.60;;;14.20;99.90;;;;;;5073105;28;20038;-62
2022/12/25 06:14:05;;;;;;;3.60;1.73;;;14.20;99.90;;;;;;5073407;28;20033;-62
2022/12/25 06:16:31;;;;;;;4.35;1.40;;;14.00;99.90;;;;;;5072972;28;20567;-62
2022/12/25 06:18:57;;;;;;;5.95;1.80;;;13.90;99.90;;;;;;5072771;28;20020;-62
2022/12/25 06:21:22;;;;;;;4.80;1.98;;;13.80;99.90;;;;;;5073123;28;20465;-62
2022/12/25 06:23:48;;;;;;;3.85;2.03;;;13.80;99.90;;;;;;5072635;28;20024;-62
2022/12/25 06:26:18;;;;;;;6.45;2.45;;;13.70;99.90;;;;;;5071914;28;20477;-63
2022/12/25 06:28:44;;;;;;;4.97;2.03;;;13.70;99.90;;;;;;5073054;28;20090;-62
2022/12/25 06:31:15;;;;;;;5.93;2.00;;;13.60;99.90;;;;;;5072932;28;20127;-62
2022/12/25 06:33:41;;;;;;;5.40;1.85;;;13.70;99.90;;;;;;5072657;28;20028;-62
2022/12/25 06:36:12;;;;;;;5.03;1.70;;;13.80;99.90;;;;;;5072898;28;20050;-62
2022/12/25 06:38:38;;;;;;;4.63;1.73;;;13.60;99.90;;;;;;5072899;28;20040;-62
2022/12/25 06:41:09;;;;;;;5.15;2.00;;;13.70;99.90;;;;;;5072866;28;20025;-63
2022/12/25 06:43:35;;;;;;;3.33;1.90;;;13.70;99.90;;;;;;5072835;28;20028;-64
2022/12/25 06:46:07;;;;;;;3.75;1.65;;;13.70;99.90;;;;;;5072726;28;20047;-63
2022/12/25 06:48:33;;;;;;;4.77;2.10;;;13.60;99.90;;;;;;5072474;28;20052;-63
2022/12/25 06:51:00;;;;;;;3.47;1.35;;;13.90;99.90;;;;;;5072305;28;20046;-64
2022/12/25 06:53:26;;;;;;;3.67;1.60;;;14.00;99.90;;;;;;5056792;28;20033;-63
2022/12/25 06:55:51;;;;;;;3.95;1.75;;;13.80;99.90;;;;;;5072662;28;20028;-63
2022/12/25 06:58:17;;;;;;;3.30;1.45;;;13.70;99.90;;;;;;5072566;28;20157;-62
2022/12/25 07:00:42;;;;;;;4.35;1.83;;;13.80;99.90;;;;;;5064036;28;20495;-64
2022/12/25 07:03:09;;;;;;;5.97;1.85;;;13.80;99.90;;;;;;5070129;28;20138;-63
2022/12/25 07:05:34;;;;;;;5.95;1.73;;;14.00;99.90;;;;;;5070757;28;20097;-62
2022/12/25 07:08:00;;;;;;;4.55;1.73;;;14.10;99.90;;;;;;5070382;28;20040;-67
2022/12/25 07:10:26;;;;;;;3.97;1.20;;;14.60;99.90;;;;;;5067622;28;20154;-67
2022/12/25 07:12:51;;;;;;;1.55;1.13;;;14.70;99.80;;;;;;5065894;28;20063;-62
2022/12/25 07:15:17;;;;;;;1.77;1.08;;;14.90;99.50;;;;;;5068658;28;20090;-63
2022/12/25 07:17:43;;;;;;;3.95;1.20;;;15.00;99.40;;;;;;5068247;28;20036;-65
2022/12/25 07:20:08;;;;;;;4.40;1.65;;;15.00;99.20;;;;;;5067300;28;20024;-62
2022/12/25 07:22:34;;;;;;;2.92;1.10;;;15.00;99.30;;;;;;5066381;28;20029;-63
2022/12/25 07:24:59;;;;;;;4.80;1.25;;;15.00;99.30;;;;;;5066803;28;20373;-63
2022/12/25 07:27:25;;;;;;;3.85;1.45;;;14.90;99.20;;;;;;5061843;28;20131;-63
2022/12/25 07:29:51;;;;;;;3.72;2.10;;;14.60;99.80;;;;;;5057797;28;20024;-62
2022/12/25 07:32:16;;;;;;;4.85;1.67;;;14.60;99.80;;;;;;5068731;28;20036;-63
2022/12/25 07:34:42;;;;;;;4.85;1.35;;;14.80;99.70;;;;;;5066834;28;20056;-62
2022/12/25 07:37:08;;;;;;;2.50;1.13;;;14.90;99.80;;;;;;5065886;28;20053;-64
2022/12/25 07:39:34;;;;;;;2.72;1.15;;;15.00;99.70;;;;;;5065441;28;20021;-63
2022/12/25 07:41:59;;;;;;;3.92;1.48;;;15.10;99.50;;;;;;5065885;28;20112;-62
2022/12/25 07:44:25;;;;;;;7.20;1.40;;;15.10;99.50;;;;;;5064493;28;20515;-62
2022/12/25 07:46:51;;;;;;;5.45;1.75;;;15.00;99.50;;;;;;5061119;28;20033;-62
2022/12/25 07:49:16;;;;;;;2.95;1.20;;;15.10;99.50;;;;;;5060274;28;20033;-63
2022/12/25 07:51:42;;;;;;;3.20;1.30;;;15.10;99.50;;;;;;5063615;28;20035;-62
2022/12/25 07:54:08;;;;;;;4.20;1.23;;;15.20;99.50;;;;;;5065644;28;20026;-62
2022/12/25 07:56:33;;;;;;;6.40;1.30;;;15.20;99.30;;;;;;5068731;28;20052;-62
2022/12/25 07:58:59;;;;;;;5.53;1.20;;;15.30;99.50;;;;;;5066313;28;20127;-63
2022/12/25 08:01:26;;;;;;;5.80;1.58;;;15.20;99.40;;;;;;5065597;28;20377;-63
2022/12/25 08:03:59;;;;;;;4.47;1.50;;;15.10;99.40;;;;;;5064944;28;20031;-63
2022/12/25 08:06:30;;;;;;;5.22;1.60;;;15.20;99.30;;;;;;5069342;28;20302;-62
2022/12/25 08:09:11;;;;;;;4.60;1.60;;;15.00;99.20;;;;;;5070647;28;20040;-64
2022/12/25 08:11:37;;;;;;;4.68;1.90;;;15.00;99.40;;;;;;5069682;28;20029;-62
2022/12/25 08:14:07;;;;;;;4.70;1.25;;;15.00;99.50;;;;;;5070721;28;20340;-62
2022/12/25 08:16:33;;;;;;;8.63;1.67;;;15.00;99.20;;;;;;5067580;28;20036;-63
2022/12/25 08:18:59;;;;;;;3.83;1.33;;;15.20;99.30;;;;;;5070317;28;20016;-62
2022/12/25 08:21:25;;;;;;;5.20;1.80;;;15.10;99.20;;;;;;5073528;28;20037;-62
2022/12/25 08:23:51;;;;;;;5.68;2.10;;;15.20;99.30;;;;;;5074224;28;20440;-62
2022/12/25 08:26:19;;;;;;;7.00;2.70;;;14.90;99.50;;;;;;5072472;28;20036;-61
2022/12/25 08:28:46;;;;;;;5.95;2.17;;;14.60;99.80;;;;;;5068636;28;20033;-62
2022/12/25 08:31:16;;;;;;;6.93;2.40;;;14.50;99.90;;;;;;5067867;28;20037;-65
2022/12/25 08:33:42;;;;;;;5.38;1.95;;;14.80;99.80;;;;;;5069101;28;20074;-62
2022/12/25 08:36:09;;;;;;;8.68;2.65;;;14.60;99.90;;;;;;5073161;28;20039;-62
2022/12/25 08:38:35;;;;;;;5.30;2.25;;;14.60;99.90;;;;;;5071317;28;20021;-62
2022/12/25 08:41:01;;;;;;;3.65;2.42;;;14.60;99.90;;;;;;5068971;28;20036;-62
2022/12/25 08:43:27;;;;;;;3.80;2.70;;;14.60;99.90;;;;;;5069098;28;20024;-63
2022/12/25 08:45:52;;;;;;;5.65;2.80;;;14.50;99.90;;;;;;5072872;28;20028;-62
2022/12/25 08:48:18;;;;;;;5.85;2.50;;;14.30;99.90;;;;;;5070255;28;20600;-63
2022/12/25 08:50:45;;;;;;;6.15;2.72;;;14.40;99.90;;;;;;5065919;28;20028;-63
2022/12/25 08:53:12;;;;;;;6.47;2.63;;;14.30;99.90;;;;;;5067051;28;20374;-61
2022/12/25 08:55:37;;;;;;;7.47;3.03;;;14.30;99.90;;;;;;5069118;28;20021;-62
2022/12/25 08:58:03;;;;;;;4.93;4.13;;;14.20;99.90;;;;;;5067213;28;20106;-60
2022/12/25 09:00:29;;;;;;;7.65;3.88;;;14.20;99.90;;;;;;5065914;28;20098;-60
2022/12/25 09:02:54;;;;;;;7.50;3.67;;;14.30;99.90;;;;;;5067478;28;20397;-60
2022/12/25 09:05:20;;;;;;;5.30;3.25;;;14.20;99.90;;;;;;5069107;28;20020;-60
2022/12/25 09:07:45;;;;;;;5.95;3.10;;;14.20;99.90;;;;;;5070859;28;20044;-61
2022/12/25 09:10:11;;;;;;;7.57;3.58;;;14.40;99.90;;;;;;5069420;28;20019;-59
2022/12/25 09:12:37;;;;;;;6.10;3.63;;;14.40;99.90;;;;;;5066460;28;20036;-60
2022/12/25 09:15:03;;;;;;;6.95;3.25;;;14.40;99.90;;;;;;5064164;28;20469;-60
2022/12/25 09:17:29;;;;;;;7.85;3.33;;;14.40;99.90;;;;;;5066836;28;20024;-62
2022/12/25 09:19:55;;;;;;;6.32;3.22;;;14.20;99.90;;;;;;5068854;28;20027;-60
2022/12/25 09:22:20;;;;;;;4.53;2.30;;;14.30;99.90;;;;;;5069547;28;20055;-60
2022/12/25 09:24:46;;;;;;;8.05;2.53;;;14.50;99.90;;;;;;5070933;28;20060;-63
2022/12/25 09:27:11;;;;;;;9.43;4.00;;;14.50;99.90;;;;;;5070910;28;20040;-61
2022/12/25 09:29:37;;;;;;;14.18;4.53;;;14.30;99.90;;;;;;5064814;28;20032;-68
2022/12/25 09:32:04;;;;;;;11.70;4.50;;;14.20;99.90;;;;;;5071621;28;20477;-60
2022/12/25 09:34:30;;;;;;;7.03;3.58;;;14.20;99.90;;;;;;5069481;28;20031;-63
2022/12/25 09:36:55;;;;;;;9.02;3.95;;;14.10;99.90;;;;;;5071520;28;20033;-64
2022/12/25 09:39:22;;;;;;;7.22;4.50;;;14.00;99.90;;;;;;5072063;28;20024;-66
2022/12/25 09:42:08;;;;;;;10.95;3.70;;;14.00;99.90;;;;;;5072277;28;20488;-67
2022/12/25 09:44:39;;;;;;;10.23;4.07;;;14.20;99.90;;;;;;5070281;28;20070;-68
2022/12/25 09:47:10;;;;;;;9.80;3.65;;;14.00;99.90;;;;;;5065056;28;20107;-66
2022/12/25 09:50:04;;;;;;;12.05;4.68;;;14.10;99.90;;;;;;5057920;28;20024;-59
2022/12/25 09:52:53;;;;;;;9.57;4.90;;;14.00;99.90;;;;;;5038424;28;20037;-68
2022/12/25 09:55:24;;;;;;;8.57;5.32;;;13.90;99.90;;;;;;5057335;28;20102;-60
2022/12/25 09:57:59;;;;;;;7.53;4.18;;;14.00;99.90;;;;;;5055557;28;20074;-62
2022/12/25 10:00:34;;;;;;;7.43;4.28;;;13.90;99.90;;;;;;5051147;28;20462;-59
2022/12/25 10:03:03;;;;;;;6.10;4.50;;;13.80;99.90;;;;;;5061066;28;20055;-70
2022/12/25 10:05:53;;;;;;;8.18;5.13;;;13.80;99.90;;;;;;5049314;28;20028;-68
2022/12/25 10:08:39;;;;;;;7.40;4.32;;;13.80;99.90;;;;;;5052456;28;20041;-63
2022/12/25 10:11:39;;;;;;;9.93;4.53;;;13.80;99.90;;;;;;5052865;28;20077;-58
2022/12/25 10:14:14;;;;;;;8.40;4.28;;;13.80;99.90;;;;;;5056065;28;20051;-59
2022/12/25 10:16:46;;;;;;;16.30;5.50;;;13.80;99.90;;;;;;5058750;28;20027;-62
2022/12/25 10:19:36;;;;;;;17.10;9.80;;;13.90;99.90;;;;;;5053848;28;20033;-61
2022/12/25 10:22:10;;;;;;;15.32;8.30;;;13.90;99.90;;;;;;5061214;28;20430;-61
2022/12/25 10:24:49;;;;;;;9.30;5.40;;;13.90;99.90;;;;;;5056214;28;20485;-61
2022/12/25 10:27:31;;;;;;;7.82;4.75;;;13.90;99.90;;;;;;5068117;28;20426;-65
2022/12/25 10:29:57;;;;;;;9.93;3.85;;;13.70;99.90;;;;;;5058969;28;20053;-62
2022/12/25 10:32:23;;;;;;;6.70;4.63;;;13.70;99.90;;;;;;5055791;28;20070;-62
2022/12/25 10:34:49;;;;;;;9.40;4.30;;;13.80;99.90;;;;;;5058216;28;20024;-63
2022/12/25 10:37:16;;;;;;;10.40;5.10;;;13.80;99.90;;;;;;5053576;28;20023;-65
2022/12/25 10:39:42;;;;;;;8.07;5.60;;;13.90;99.90;;;;;;5057017;28;20040;-58
2022/12/25 10:42:39;;;;;;;9.63;5.55;;;13.80;99.90;;;;;;5062858;28;20033;-62
2022/12/25 10:45:07;;;;;;;7.85;5.43;;;13.80;99.90;;;;;;5067390;28;20045;-70
2022/12/25 10:47:41;;;;;;;9.35;4.60;;;14.20;99.90;;;;;;5068047;28;20414;-62
2022/12/25 10:50:08;;;;;;;6.45;4.82;;;14.30;99.90;;;;;;5061797;28;20111;-66
2022/12/25 10:52:34;;;;;;;6.18;4.05;;;14.40;99.90;;;;;;5060803;28;20062;-61
2022/12/25 10:55:10;;;;;;;11.82;5.13;;;14.40;99.90;;;;;;5061989;28;20465;-63
2022/12/25 10:57:44;;;;;;;7.50;5.40;;;14.20;99.90;;;;;;5066153;28;20047;-65
2022/12/25 11:00:28;;;;;;;12.48;4.70;;;14.00;99.90;;;;;;5062517;28;20036;-62
2022/12/25 11:02:53;;;;;;;10.48;5.65;;;13.90;99.90;;;;;;5065653;28;20025;-60
2022/12/25 11:05:30;;;;;;;5.88;3.88;;;13.90;99.90;;;;;;5069384;28;20074;-61
2022/12/25 11:07:58;;;;;;;9.15;5.18;;;13.80;99.90;;;;;;5059274;28;20055;-61
2022/12/25 11:10:30;;;;;;;8.95;4.63;;;13.90;99.90;;;;;;5068538;28;20024;-64
2022/12/25 11:12:56;;;;;;;11.33;5.23;;;13.90;99.90;;;;;;5059756;28;20111;-66
2022/12/25 11:15:37;;;;;;;11.10;3.90;;;13.80;99.90;;;;;;5062328;28;20481;-62
2022/12/25 11:18:18;;;;;;;8.07;4.90;;;14.50;99.90;;;;;;5059859;28;20052;-61
2022/12/25 11:20:52;;;;;;;7.05;5.65;;;14.30;99.90;;;;;;5061686;28;20481;-61
2022/12/25 11:23:19;;;;;;;12.50;7.57;;;14.30;99.90;;;;;;5062360;28;20063;-63
2022/12/25 11:26:06;;;;;;;11.60;7.88;;;14.20;99.90;;;;;;5065890;28;20823;-65
2022/12/25 11:28:35;;;;;;;8.95;5.20;;;14.60;99.90;;;;;;5058307;28;20067;-63
2022/12/25 11:31:18;;;;;;;10.60;8.40;;;14.70;99.90;;;;;;5062295;28;20024;-64
2022/12/25 11:34:08;;;;;;;13.57;9.20;;;14.70;99.90;;;;;;5068572;28;20107;-62
2022/12/25 11:36:49;;;;;;;11.40;8.23;;;14.30;99.90;;;;;;5064229;28;20017;-62
2022/12/25 11:39:18;;;;;;;11.75;7.88;;;14.20;99.90;;;;;;5069141;28;20029;-64
2022/12/25 11:41:45;;;;;;;9.43;6.50;;;14.60;99.90;;;;;;5071664;28;20021;-66
2022/12/25 11:44:26;;;;;;;11.52;10.32;;;14.80;99.90;;;;;;5063193;28;20099;-62
2022/12/25 11:46:54;;;;;;;8.30;7.07;;;14.80;99.90;;;;;;5069559;28;20071;-62
2022/12/25 11:49:20;;;;;;;7.60;6.50;;;14.90;99.90;;;;;;5071770;28;20035;-63
2022/12/25 11:51:50;;;;;;;7.93;6.47;;;14.90;99.90;;;;;;5070448;28;20033;-62
2022/12/25 11:54:25;;;;;;;8.73;5.07;;;15.00;99.90;;;;;;5072757;28;20033;-62
2022/12/25 11:56:51;;;;;;;8.13;5.22;;;15.10;99.90;;;;;;5073375;28;20024;-66
2022/12/25 11:59:37;;;;;;;6.82;4.78;;;14.80;99.90;;;;;;5077624;28;20023;-63
2022/12/25 12:02:25;;;;;;;19.92;13.43;;;14.50;99.90;;;;;;5062869;28;20488;-62
2022/12/25 12:05:29;;;;;;;26.25;19.00;;;14.30;99.90;;;;;;5070913;28;20024;-62
2022/12/25 12:08:01;;;;;;;37.30;28.05;;;14.10;99.90;;;;;;5037796;28;20059;-64
2022/12/25 12:10:38;;;;;;;23.67;17.23;;;14.40;99.90;;;;;;5067848;28;20533;-62
2022/12/25 12:13:34;;;;;;;16.02;10.70;;;14.60;99.90;;;;;;5064970;28;20078;-62
2022/12/25 12:16:00;;;;;;;10.95;8.27;;;14.40;99.90;;;;;;5066022;28;20025;-62
2022/12/25 12:18:26;;;;;;;12.20;7.97;;;14.30;99.90;;;;;;5067609;28;20029;-62
2022/12/25 12:21:08;;;;;;;12.77;9.25;;;14.40;99.90;;;;;;5064685;28;20029;-64
2022/12/25 12:23:47;;;;;;;12.40;9.00;;;14.30;99.90;;;;;;5070114;28;20115;-63
2022/12/25 12:26:19;;;;;;;10.73;8.77;;;14.10;99.90;;;;;;5067934;28;20024;-61
2022/12/25 12:28:46;;;;;;;10.83;9.53;;;14.10;99.90;;;;;;5068384;28;20407;-62
2022/12/25 12:31:12;;;;;;;12.73;9.52;;;14.30;99.90;;;;;;5064450;28;20348;-62
2022/12/25 12:33:58;;;;;;;10.63;8.77;;;14.20;99.90;;;;;;5067867;28;20486;-61
2022/12/25 12:36:26;;;;;;;12.82;10.13;;;14.30;99.90;;;;;;5069343;28;20050;-61
2022/12/25 12:38:53;;;;;;;9.45;8.55;;;14.30;99.90;;;;;;5067403;28;20055;-61
2022/12/25 12:41:21;;;;;;;10.43;8.07;;;14.40;99.90;;;;;;5071273;28;20052;-61
2022/12/25 12:43:55;;;;;;;9.35;7.68;;;14.40;99.90;;;;;;5067750;28;20025;-61
2022/12/25 12:46:23;;;;;;;13.50;8.48;;;14.30;99.90;;;;;;5069137;28;20036;-61
2022/12/25 12:48:51;;;;;;;9.68;8.40;;;14.40;99.90;;;;;;5065287;28;20039;-62
2022/12/25 12:51:32;;;;;;;8.75;7.50;;;14.40;99.90;;;;;;5068842;28;20058;-60
2022/12/25 12:54:23;;;;;;;8.57;7.68;;;14.20;99.90;;;;;;5068954;28;20035;-60
2022/12/25 12:57:02;;;;;;;10.73;7.13;;;14.10;99.90;;;;;;5066786;28;20028;-60
2022/12/25 12:59:45;;;;;;;9.25;7.28;;;14.30;99.90;;;;;;5072123;28;20029;-61
2022/12/25 13:02:38;;;;;;;8.55;7.53;;;14.30;99.90;;;;;;5066117;28;20030;-61
2022/12/25 13:05:12;;;;;;;;;;;14.30;99.90;;;;;;5066711;28;20036;-61
2022/12/25 13:07:55;;;;;;;8.10;7.30;;;14.80;99.90;;;;;;5070411;28;19916;-60
2022/12/25 13:10:32;;;;;;;8.75;7.38;;;14.60;99.90;;;;;;5070596;28;20377;-60
2022/12/25 13:13:11;;;;;;;8.73;6.78;;;14.70;99.90;;;;;;5068113;28;20040;-60
2022/12/25 13:15:37;;;;;;;8.85;6.50;;;14.70;99.90;;;;;;5070560;28;20051;-61
2022/12/25 13:18:06;;;;;;;10.45;6.70;;;14.80;99.90;;;;;;5070638;28;20020;-61
2022/12/25 13:20:43;;;;;;;9.25;6.60;;;14.60;99.90;;;;;;5069965;28;20095;-61
2022/12/25 13:23:14;;;;;;;7.45;6.43;;;14.70;99.90;;;;;;5067822;28;20111;-60
2022/12/25 13:25:40;;;;;;;9.02;6.85;;;14.70;99.90;;;;;;5067333;28;20026;-61
2022/12/25 13:28:12;;;;;;;8.90;7.03;;;14.50;99.90;;;;;;5068117;28;20052;-61
2022/12/25 13:30:37;;;;;;;7.88;6.82;;;14.30;99.90;;;;;;5066650;28;20040;-61
2022/12/25 13:33:03;;;;;;;11.40;7.40;;;14.30;99.90;;;;;;5060324;28;20033;-64
2022/12/25 13:35:28;;;;;;;11.65;6.57;;;14.30;99.90;;;;;;5064986;28;20067;-62
2022/12/25 13:37:55;;;;;;;8.02;7.03;;;14.30;99.90;;;;;;5069003;28;20036;-61
2022/12/25 13:40:26;;;;;;;9.38;6.45;;;14.50;99.90;;;;;;5066968;28;20033;-61
2022/12/25 13:42:59;;;;;;;11.00;6.93;;;14.30;99.90;;;;;;5066283;28;20103;-60
2022/12/25 13:45:28;;;;;;;10.75;6.60;;;14.50;99.90;;;;;;5068622;28;20440;-61
2022/12/25 13:47:53;;;;;;;8.77;6.90;;;14.40;99.90;;;;;;5063893;28;20040;-61
2022/12/25 13:50:26;;;;;;;8.45;7.47;;;14.20;99.90;;;;;;5066592;28;20385;-61
2022/12/25 13:52:53;;;;;;;8.45;7.10;;;14.20;99.90;;;;;;5066842;28;20071;-62
2022/12/25 13:55:27;;;;;;;7.47;6.80;;;14.30;99.90;;;;;;5068067;28;20085;-61
2022/12/25 13:57:58;;;;;;;7.38;6.68;;;14.60;99.90;;;;;;5062519;28;20028;-61
2022/12/25 14:00:31;;;;;;;7.20;6.50;;;14.70;99.90;;;;;;5062376;28;20032;-61
2022/12/25 14:02:57;;;;;;;8.10;7.25;;;14.90;99.90;;;;;;5070374;28;20036;-62
2022/12/25 14:05:28;;;;;;;8.45;7.65;;;15.00;99.90;;;;;;5068288;28;20035;-62
2022/12/25 14:07:56;;;;;;;9.25;7.95;;;15.20;99.90;;;;;;5052615;28;21017;-65
2022/12/25 14:10:24;;;;;;;9.27;8.38;;;15.20;99.90;;;;;;5052111;28;20543;-63
2022/12/25 14:12:52;;;;;;;9.00;8.10;;;14.70;99.90;;;;;;5065393;28;20028;-63
2022/12/25 14:15:21;;;;;;;7.20;6.50;;;14.50;99.90;;;;;;5064358;28;20040;-63
2022/12/25 14:17:50;;;;;;;10.10;6.70;;;14.60;99.90;;;;;;5066334;28;20064;-62
2022/12/25 14:20:23;;;;;;;6.68;6.07;;;14.30;99.90;;;;;;5062145;28;20075;-68
2022/12/25 14:22:54;;;;;;;7.35;6.15;;;14.20;99.90;;;;;;5056727;28;20039;-63
2022/12/25 14:25:25;;;;;;;6.05;5.45;;;14.10;99.90;;;;;;5066222;28;20024;-65
2022/12/25 14:27:51;;;;;;;5.75;5.20;;;14.10;99.90;;;;;;5059781;28;20116;-68
2022/12/25 14:30:18;;;;;;;5.80;5.25;;;14.20;99.90;;;;;;5067112;28;20115;-61
2022/12/25 14:32:49;;;;;;;5.82;5.28;;;14.60;99.90;;;;;;5062772;28;20032;-62
2022/12/25 14:35:16;;;;;;;7.30;5.13;;;14.80;99.90;;;;;;5063422;28;20073;-61
2022/12/25 14:37:42;;;;;;;6.53;5.53;;;14.40;99.90;;;;;;5069744;28;20277;-62
2022/12/25 14:40:18;;;;;;;6.78;6.18;;;14.30;99.90;;;;;;5066659;28;20512;-62